Bookmark and Share
Track history (hours):
 

Michigan

More information available from US FCC via Universal Licensing System and Coast Guard Vessel Documentation Center.

Last reported at 2014-Apr-16 02:33 UTC. Time now 2014-Apr-16 05:19 UTC.
Position N 45°44' W 085°59'.

Length 144 m; draft 4.8 m.

Type: Ship (hazmat cat D). MMSI: 303583000.

NotesDate/timePositionNaut miles runAvg speedWind from/ knotsBaromVisibWave heightAir tempDewpointWater temp
2014-Apr-16 02:33N 45°44' W 085°59'1111.4
2014-Apr-16 01:33N 45°50' W 085°45'1010.2
2014-Apr-16 00:33N 45°54' W 085°31'6 6.4
2014-Apr-15 23:33N 45°54' W 085°22'5 5.1
2014-Apr-15 22:33N 45°54' W 085°15'2 1.9
2014-Apr-15 21:33N 45°53' W 085°12'0 0.2
2014-Apr-15 20:33N 45°53' W 085°13'3 2.8
2014-Apr-15 19:33N 45°52' W 085°09'3 3.0
2014-Apr-15 18:33N 45°51' W 085°05'1 1.2
2014-Apr-15 17:33N 45°51' W 085°04'4 3.9
2014-Apr-15 16:33N 45°50' W 084°58'7 6.6
2014-Apr-15 15:33N 45°49' W 084°49'4 4.4
2014-Apr-15 14:33N 45°49' W 084°42'9 4.6
2014-Apr-15 12:34N 45°51' W 084°30'8 7.9
2014-Apr-15 11:34N 45°48' W 084°19'7 7.5
2014-Apr-15 10:34N 45°41' W 084°22'5 4.8
2014-Apr-15 09:34N 45°39' W 084°28'4 6.1
2014-Apr-15 09:00N 45°36' W 084°30'3 7.5 340 / 101012.5 -6.9
2014-Apr-15 08:34N 45°39' W 084°28'0 0.0
2014-Apr-15 07:34N 45°39' W 084°28'3 5.6
2014-Apr-15 07:00N 45°36' W 084°30'3 7.5 350 / 121012.5 -6.4
2014-Apr-15 06:34N 45°39' W 084°28'0 0.0
2014-Apr-15 05:34N 45°39' W 084°28'0 0.0
2014-Apr-15 03:34N 45°39' W 084°28'0 0.0
2014-Apr-15 02:34N 45°39' W 084°28'0 0.0
2014-Apr-15 01:34N 45°39' W 084°28'0 0.0
2014-Apr-15 00:34N 45°39' W 084°28'0 0.0
2014-Apr-14 23:34N 45°39' W 084°28'0 0.0
2014-Apr-14 22:34N 45°39' W 084°28'0 0.0
2014-Apr-14 21:34N 45°39' W 084°28'0 0.0
2014-Apr-14 20:33N 45°39' W 084°28'0 0.0
2014-Apr-14 19:34N 45°39' W 084°28'0 0.0
2014-Apr-14 18:34N 45°39' W 084°28'0 0.0
2014-Apr-14 17:34N 45°39' W 084°28'0 0.0
2014-Apr-14 16:33N 45°39' W 084°28'0 0.0
2014-Apr-14 15:33N 45°39' W 084°28'0 0.0
2014-Apr-14 14:33N 45°39' W 084°28'3 5.7
2014-Apr-14 14:00N 45°36' W 084°30'3 7.4 330 / 101000.3 2.2 0.1
2014-Apr-14 13:33N 45°39' W 084°28'0 0.0
2014-Apr-14 11:33N 45°39' W 084°28'3 5.7
2014-Apr-14 11:00N 45°36' W 084°30'3 7.4 360 / 15998.9 1.6
2014-Apr-14 10:33N 45°39' W 084°28'0 0.0
2014-Apr-14 09:33N 45°39' W 084°28'0 0.0
2014-Apr-14 08:33N 45°39' W 084°28'0 0.0
2014-Apr-14 07:33N 45°39' W 084°28'0 0.0
2014-Apr-14 06:33N 45°39' W 084°28'0 0.0
2014-Apr-14 05:33N 45°39' W 084°28'0 0.0
2014-Apr-13 22:33N 45°39' W 084°28'0 0.0
2014-Apr-13 21:33N 45°39' W 084°28'0 0.0
2014-Apr-13 20:33N 45°39' W 084°28'0 0.0
2014-Apr-13 19:33N 45°39' W 084°28'0 0.0
2014-Apr-13 18:33N 45°39' W 084°28'1729.4
2014-Apr-13 18:00N 45°24' W 084°18'1738.0
2014-Apr-13 17:33N 45°39' W 084°28'0 0.0
2014-Apr-13 16:33N 45°39' W 084°28'0 0.0
2014-Apr-13 15:33N 45°39' W 084°28'3 5.7
2014-Apr-13 15:00N 45°36' W 084°30'3 7.0 360 / 51009.1 2.2 1.5
2014-Apr-13 14:32N 45°39' W 084°28'0 0.0
2014-Apr-13 13:33N 45°39' W 084°28'3 5.8
2014-Apr-13 13:00N 45°36' W 084°30'3 7.4 060 / 51008.1 0.9
2014-Apr-13 12:33N 45°39' W 084°28'0 0.0
2014-Apr-13 11:33N 45°39' W 084°28'0 0.0
2014-Apr-13 10:33N 45°39' W 084°28'0 0.0
2014-Apr-13 09:33N 45°39' W 084°28'0 0.0
2014-Apr-13 08:33N 45°39' W 084°28'0 0.0
2014-Apr-13 07:33N 45°39' W 084°28'0 0.0
2014-Apr-13 06:33N 45°39' W 084°28'0 0.0
2014-Apr-13 05:33N 45°39' W 084°28'0 0.0
2014-Apr-13 04:33N 45°39' W 084°28'0 0.0
2014-Apr-13 03:33N 45°39' W 084°28'0 0.0
2014-Apr-13 02:33N 45°39' W 084°28'0 0.0
2014-Apr-13 01:33N 45°39' W 084°28'0 0.0
2014-Apr-13 00:33N 45°39' W 084°28'0 0.0
2014-Apr-12 23:33N 45°39' W 084°28'0 0.0
2014-Apr-12 22:33N 45°39' W 084°28'0 0.0
2014-Apr-12 21:33N 45°39' W 084°28'0 0.0
2014-Apr-12 20:34N 45°39' W 084°28'0 0.0
2014-Apr-12 19:33N 45°39' W 084°28'0 0.0
2014-Apr-12 18:33N 45°39' W 084°28'0 0.0
2014-Apr-12 17:33N 45°39' W 084°28'0 0.0
2014-Apr-12 16:33N 45°39' W 084°28'0 0.0
2014-Apr-12 15:33N 45°39' W 084°28'0 0.0
2014-Apr-12 14:33N 45°39' W 084°28'0 0.0
2014-Apr-12 13:33N 45°39' W 084°28'0 0.0
2014-Apr-12 12:33N 45°39' W 084°28'0 0.0
2014-Apr-12 11:33N 45°39' W 084°28'0 0.0
2014-Apr-12 10:33N 45°39' W 084°28'0 0.0
2014-Apr-12 09:33N 45°39' W 084°28'0 0.0
2014-Apr-12 08:33N 45°39' W 084°28'0 0.0
2014-Apr-12 07:33N 45°39' W 084°28'0 0.0
2014-Apr-12 06:33N 45°39' W 084°28'0 0.0
2014-Apr-12 05:34N 45°39' W 084°28'0 0.0
2014-Apr-12 04:33N 45°39' W 084°28'0 0.0
2014-Apr-12 03:33N 45°39' W 084°28'0 0.0
2014-Apr-12 02:33N 45°39' W 084°28'0 0.0
2014-Apr-12 01:33N 45°39' W 084°28'0 0.0
2014-Apr-12 00:33N 45°39' W 084°28'0 0.0
2014-Apr-11 23:33N 45°39' W 084°28'0 0.0
2014-Apr-11 22:33N 45°39' W 084°28'0 0.0
2014-Apr-11 21:33N 45°39' W 084°28'0 0.0
2014-Apr-11 20:33N 45°39' W 084°28'0 0.0
2014-Apr-11 19:33N 45°39' W 084°28'0 0.0
2014-Apr-11 18:33N 45°39' W 084°28'0 0.0
2014-Apr-11 17:33N 45°39' W 084°28'0 0.0
2014-Apr-11 16:33N 45°39' W 084°28'0 0.0
2014-Apr-11 15:34N 45°39' W 084°28'0 0.0
2014-Apr-11 14:33N 45°39' W 084°28'0 0.0
2014-Apr-11 13:33N 45°39' W 084°28'0 0.0
2014-Apr-11 12:33N 45°39' W 084°28'0 0.0
2014-Apr-11 11:33N 45°39' W 084°28'0 0.0
2014-Apr-11 10:33N 45°39' W 084°28'  

Dump ship's entire track history

sailing weather and tide predictions

Michigan — WDF5344 — position and weather